Time;durP1;ratioP1;P1;durP2;ratioP2;P2;SDS_P1;SDS_P2;PMS_P1;PMS_P2;Temp;Humidity;BMP_temperature;BMP_pressure;BME280_temperature;BME280_humidity;BME280_pressure;Samples;Min_cycle;Max_cycle;Signal;HPM_P1;HPM_P2
2021/07/06 00:01:53;;;;;;;;;;;28.30;89.80;;;;;;1848350;76;20188;-92
2021/07/06 00:04:23;;;;;;;;;;;28.30;90.80;;;;;;1841734;76;20210;-93
2021/07/06 00:06:56;;;;;;;;;;;28.20;91.30;;;;;;1848378;75;20210;-92
2021/07/06 00:09:27;;;;;;;;;;;28.10;92.20;;;;;;1849430;76;20167;-92
2021/07/06 00:11:56;;;;;;;;;;;28.00;91.20;;;;;;1845679;76;20242;-92
2021/07/06 00:14:26;;;;;;;;;;;28.00;91.20;;;;;;1848989;76;20417;-92
2021/07/06 00:17:00;;;;;;;;;;;27.90;91.80;;;;;;1851045;76;20157;-92
2021/07/06 00:19:30;;;;;;;;;;;27.80;91.90;;;;;;1842396;76;20207;-91
2021/07/06 00:22:00;;;;;;;;;;;27.80;91.80;;;;;;1843519;76;20139;-93
2021/07/06 00:24:29;;;;;;;;;;;27.80;99.50;;;;;;1853998;76;20408;-92
2021/07/06 00:26:59;;;;;;;;;;;27.80;99.90;;;;;;1837284;76;20238;-93
2021/07/06 00:29:33;;;;;;;;;;;27.70;99.90;;;;;;1848047;76;20128;-92
2021/07/06 00:32:01;;;;;;;;;;;27.80;99.90;;;;;;1850827;76;20272;-93
2021/07/06 00:34:32;;;;;;;;;;;27.70;99.90;;;;;;1860221;76;20228;-91
2021/07/06 00:37:05;;;;;;;;;;;27.70;99.90;;;;;;1840066;76;20151;-91
2021/07/06 00:39:40;;;;;;;;;;;27.70;94.70;;;;;;1838802;76;20180;-93
2021/07/06 00:42:08;;;;;;;;;;;27.60;93.80;;;;;;1837162;76;20196;-93
2021/07/06 00:44:38;;;;;;;;;;;27.60;93.20;;;;;;1831096;76;20200;-93
2021/07/06 00:47:10;;;;;;;;;;;27.60;93.10;;;;;;1846610;76;20137;-92
2021/07/06 00:49:41;;;;;;;;;;;27.60;93.50;;;;;;1845169;76;20137;-93
2021/07/06 00:55:10;;;;;;;;;;;27.60;92.90;;;;;;1896111;74;20111;-90
2021/07/06 00:57:45;;;;;;;;;;;27.60;93.00;;;;;;1889996;74;20142;-92
2021/07/06 01:00:19;;;;;;;;;;;27.60;93.20;;;;;;1901449;74;20221;-92
2021/07/06 01:02:51;;;;;;;;;;;27.60;93.00;;;;;;1856465;75;20263;-94
2021/07/06 01:05:22;;;;;;;;;;;27.60;93.00;;;;;;1832760;75;20169;-92
2021/07/06 01:08:01;;;;;;;;;;;27.70;94.40;;;;;;1854160;77;20124;-93
2021/07/06 01:10:31;;;;;;;;;;;27.70;95.50;;;;;;1819829;77;20160;-90
2021/07/06 01:13:06;;;;;;;;;;;27.70;96.10;;;;;;1823644;77;20333;-88
2021/07/06 01:15:36;;;;;;;;;;;27.70;96.20;;;;;;1811306;77;20253;-90
2021/07/06 01:18:24;;;;;;;;;;;27.70;96.50;;;;;;1884948;74;20453;-92
2021/07/06 01:20:55;;;;;;;;;;;27.60;96.50;;;;;;1856390;76;20194;-89
2021/07/06 01:23:31;;;;;;;;;;;27.60;96.80;;;;;;1811426;77;20148;-89
2021/07/06 01:26:02;;;;;;;;;;;27.60;96.60;;;;;;1886307;73;20209;-90
2021/07/06 01:28:34;;;;;;;;;;;27.50;97.10;;;;;;1845656;75;20138;-90
2021/07/06 01:31:06;;;;;;;;;;;27.50;96.20;;;;;;1852386;75;20224;-83
2021/07/06 01:33:38;;;;;;;;;;;27.50;95.20;;;;;;1875388;74;20260;-92
2021/07/06 01:36:08;;;;;;;;;;;27.60;95.30;;;;;;1860556;75;20127;-91
2021/07/06 01:38:39;;;;;;;;;;;27.60;95.40;;;;;;1846647;75;20441;-89
2021/07/06 01:41:08;;;;;;;;;;;27.70;94.30;;;;;;1852571;75;20751;-93
2021/07/06 01:43:38;;;;;;;;;;;27.70;95.10;;;;;;1831041;76;20234;-92
2021/07/06 01:46:08;;;;;;;;;;;27.70;94.80;;;;;;1814993;77;20178;-91
2021/07/06 01:48:38;;;;;;;;;;;27.80;94.40;;;;;;1873893;75;20240;-91
2021/07/06 01:51:08;;;;;;;;;;;27.80;94.40;;;;;;1846490;75;20185;-89
2021/07/06 01:53:38;;;;;;;;;;;27.80;94.10;;;;;;1891964;74;20150;-93
2021/07/06 01:56:08;;;;;;;;;;;27.80;94.70;;;;;;1884358;73;20265;-94
2021/07/06 01:58:39;;;;;;;;;;;27.80;94.60;;;;;;1885482;74;21060;-90
2021/07/06 02:01:10;;;;;;;;;;;27.80;95.00;;;;;;1883293;74;20241;-89
2021/07/06 02:03:47;;;;;;;;;;;27.70;95.40;;;;;;1889092;74;20202;-85
2021/07/06 02:06:16;;;;;;;;;;;27.80;96.10;;;;;;1881463;74;20235;-89
2021/07/06 02:08:48;;;;;;;;;;;27.80;96.00;;;;;;1887972;74;20170;-89
2021/07/06 02:11:18;;;;;;;;;;;27.80;95.90;;;;;;1875313;74;20496;-84
2021/07/06 02:13:48;;;;;;;;;;;27.70;95.30;;;;;;1860324;75;20232;-79
2021/07/06 02:16:19;;;;;;;;;;;27.80;94.40;;;;;;1832222;76;20167;-78
2021/07/06 02:18:49;;;;;;;;;;;27.80;94.90;;;;;;1803051;76;20215;-78
2021/07/06 02:21:18;;;;;;;;;;;27.80;94.50;;;;;;1862005;74;20191;-77
2021/07/06 02:23:49;;;;;;;;;;;27.80;95.30;;;;;;1875358;74;20437;-77
2021/07/06 02:26:19;;;;;;;;;;;27.80;94.40;;;;;;1891005;74;20147;-76
2021/07/06 02:28:52;;;;;;;;;;;27.80;94.30;;;;;;1886422;74;20444;-77
2021/07/06 02:31:21;;;;;;;;;;;27.80;94.80;;;;;;1872054;74;20244;-76
2021/07/06 02:33:53;;;;;;;;;;;27.70;94.10;;;;;;1877489;75;20154;-77
2021/07/06 02:36:27;;;;;;;;;;;27.70;94.40;;;;;;1864187;75;20168;-78
2021/07/06 02:38:55;;;;;;;;;;;27.60;94.30;;;;;;1870868;75;20173;-77
2021/07/06 02:41:25;;;;;;;;;;;27.60;94.30;;;;;;1882549;74;20174;-77
2021/07/06 02:43:57;;;;;;;;;;;27.50;94.20;;;;;;1860314;75;20118;-77
2021/07/06 02:46:27;;;;;;;;;;;27.50;94.20;;;;;;1839773;76;20151;-76
2021/07/06 02:48:59;;;;;;;;;;;27.40;95.20;;;;;;1897440;74;20238;-78
2021/07/06 02:51:28;;;;;;;;;;;27.40;94.60;;;;;;1898803;74;20167;-78
2021/07/06 02:53:58;;;;;;;;;;;27.40;95.30;;;;;;1888985;73;20220;-77
2021/07/06 02:56:28;;;;;;;;;;;27.40;95.70;;;;;;1887960;75;20253;-79
2021/07/06 02:58:58;;;;;;;;;;;27.40;95.00;;;;;;1892374;74;20293;-77
2021/07/06 03:01:28;;;;;;;;;;;27.40;95.00;;;;;;1897007;74;20213;-77
2021/07/06 03:03:58;;;;;;;;;;;27.50;95.50;;;;;;1892732;74;20283;-78
2021/07/06 03:06:30;;;;;;;;;;;27.50;95.30;;;;;;1888527;74;20466;-78
2021/07/06 03:09:00;;;;;;;;;;;27.60;94.50;;;;;;1895906;74;20291;-78
2021/07/06 03:11:29;;;;;;;;;;;27.60;94.40;;;;;;1885626;74;20166;-78
2021/07/06 03:14:02;;;;;;;;;;;27.70;94.70;;;;;;1879783;74;20215;-78
2021/07/06 03:16:35;;;;;;;;;;;27.70;94.40;;;;;;1876654;74;20142;-78
2021/07/06 03:19:08;;;;;;;;;;;27.80;94.40;;;;;;1884482;74;20512;-79
2021/07/06 03:21:39;;;;;;;;;;;27.80;94.10;;;;;;1882556;74;20456;-78
2021/07/06 03:24:09;;;;;;;;;;;27.90;94.00;;;;;;1877612;75;20500;-78
2021/07/06 03:26:41;;;;;;;;;;;27.90;93.90;;;;;;1892061;75;20477;-77
2021/07/06 03:29:13;;;;;;;;;;;28.00;93.80;;;;;;1890485;75;20465;-79
2021/07/06 03:31:46;;;;;;;;;;;28.00;93.40;;;;;;1863438;74;20222;-78
2021/07/06 03:34:15;;;;;;;;;;;28.10;93.30;;;;;;1887238;74;20219;-77
2021/07/06 03:36:45;;;;;;;;;;;28.20;93.30;;;;;;1888492;75;20229;-77
2021/07/06 03:39:15;;;;;;;;;;;28.30;93.50;;;;;;1870960;75;20597;-78
2021/07/06 03:41:44;;;;;;;;;;;28.30;93.50;;;;;;1877956;75;20260;-77
2021/07/06 03:44:14;;;;;;;;;;;28.40;93.20;;;;;;1879010;75;20166;-78
2021/07/06 03:46:46;;;;;;;;;;;28.50;93.00;;;;;;1879128;74;20476;-78
2021/07/06 03:49:17;;;;;;;;;;;28.50;92.70;;;;;;1891873;73;20410;-78
2021/07/06 03:51:50;;;;;;;;;;;28.60;92.80;;;;;;1889772;74;20202;-77
2021/07/06 03:54:21;;;;;;;;;;;28.60;92.90;;;;;;1877566;75;20155;-78
2021/07/06 03:56:55;;;;;;;;;;;28.60;93.00;;;;;;1880689;75;20172;-78
2021/07/06 03:59:29;;;;;;;;;;;28.70;93.00;;;;;;1890335;75;20209;-79
2021/07/06 04:01:57;;;;;;;;;;;28.70;92.80;;;;;;1870275;75;20431;-78
2021/07/06 04:04:27;;;;;;;;;;;28.80;92.60;;;;;;1886507;75;20178;-78
2021/07/06 04:06:57;;;;;;;;;;;28.80;92.80;;;;;;1874179;75;20205;-77
2021/07/06 04:09:28;;;;;;;;;;;28.80;92.90;;;;;;1882294;75;20311;-78
2021/07/06 04:12:31;;;;;;;;;;;28.90;92.70;;;;;;1864648;74;20197;-77
2021/07/06 04:15:19;;;;;;;;;;;28.90;92.50;;;;;;1866090;73;20257;-79
2021/07/06 04:17:49;;;;;;;;;;;28.90;92.60;;;;;;1899318;74;20163;-78
2021/07/06 04:20:20;;;;;;;;;;;29.00;92.70;;;;;;1886116;74;20282;-80
2021/07/06 04:22:50;;;;;;;;;;;29.00;92.50;;;;;;1881002;75;20185;-79
2021/07/06 04:25:19;;;;;;;;;;;29.10;92.40;;;;;;1849941;75;20148;-80
2021/07/06 04:27:52;;;;;;;;;;;29.10;92.50;;;;;;1896596;74;20167;-79
2021/07/06 04:30:23;;;;;;;;;;;29.20;92.30;;;;;;1848317;76;20194;-80
2021/07/06 04:32:54;;;;;;;;;;;29.20;92.10;;;;;;1820139;77;20214;-79
2021/07/06 04:35:24;;;;;;;;;;;29.30;92.00;;;;;;1879578;74;20165;-79
2021/07/06 04:37:54;;;;;;;;;;;29.30;91.90;;;;;;1887985;73;20204;-79
2021/07/06 04:40:24;;;;;;;;;;;29.30;91.80;;;;;;1912570;74;20245;-79
2021/07/06 04:42:55;;;;;;;;;;;29.30;91.70;;;;;;1893630;74;20481;-80
2021/07/06 04:45:25;;;;;;;;;;;29.40;91.70;;;;;;1893921;75;20410;-80
2021/07/06 04:47:55;;;;;;;;;;;29.50;91.40;;;;;;1878962;73;20252;-79
2021/07/06 04:50:25;;;;;;;;;;;29.70;91.30;;;;;;1883577;75;20173;-77
2021/07/06 04:52:55;;;;;;;;;;;29.90;91.10;;;;;;1877592;75;20170;-79
2021/07/06 04:55:24;;;;;;;;;;;30.00;91.00;;;;;;1853508;75;20211;-79
2021/07/06 04:57:55;;;;;;;;;;;30.20;90.70;;;;;;1882156;75;20303;-78
2021/07/06 05:00:26;;;;;;;;;;;30.40;90.70;;;;;;1869978;75;20264;-79
2021/07/06 05:02:55;;;;;;;;;;;30.60;90.30;;;;;;1882196;75;20167;-78
2021/07/06 05:05:28;;;;;;;;;;;30.80;90.30;;;;;;1881849;75;20153;-78
2021/07/06 05:07:58;;;;;;;;;;;30.90;90.00;;;;;;1874435;74;20247;-77
2021/07/06 05:10:28;;;;;;;;;;;31.00;89.30;;;;;;1881838;74;20161;-79
2021/07/06 05:12:57;;;;;;;;;;;31.10;88.40;;;;;;1867927;75;20314;-77
2021/07/06 05:15:27;;;;;;;;;;;31.20;88.30;;;;;;1855359;75;20207;-79
2021/07/06 05:17:57;;;;;;;;;;;31.20;85.70;;;;;;1828400;77;20301;-80
2021/07/06 05:20:29;;;;;;;;;;;31.10;86.40;;;;;;1828694;77;20176;-79
2021/07/06 05:22:59;;;;;;;;;;;31.00;87.10;;;;;;1819059;77;20205;-79
2021/07/06 05:25:30;;;;;;;;;;;30.90;88.10;;;;;;1853255;75;20280;-79
2021/07/06 05:28:00;;;;;;;;;;;31.00;88.60;;;;;;1872163;74;20212;-80
2021/07/06 05:30:30;;;;;;;;;;;31.00;88.40;;;;;;1884005;75;20221;-80
2021/07/06 05:33:00;;;;;;;;;;;30.90;88.60;;;;;;1888162;74;20198;-79
2021/07/06 05:35:29;;;;;;;;;;;31.00;88.30;;;;;;1889146;74;20209;-81
2021/07/06 05:38:03;;;;;;;;;;;31.00;88.50;;;;;;1890864;75;20303;-79
2021/07/06 05:40:38;;;;;;;;;;;31.10;88.40;;;;;;1875770;75;20224;-81
2021/07/06 05:43:05;;;;;;;;;;;31.20;88.40;;;;;;1885582;73;20209;-78
2021/07/06 05:45:37;;;;;;;;;;;31.40;87.50;;;;;;1891971;74;20177;-77
2021/07/06 05:48:07;;;;;;;;;;;31.40;87.00;;;;;;1895661;74;20191;-80
2021/07/06 05:50:39;;;;;;;;;;;31.60;87.50;;;;;;1880499;75;20248;-80
2021/07/06 05:53:11;;;;;;;;;;;31.60;87.30;;;;;;1879888;75;20185;-80
2021/07/06 05:55:44;;;;;;;;;;;31.70;87.20;;;;;;1885811;74;20206;-79
2021/07/06 05:58:17;;;;;;;;;;;31.70;86.30;;;;;;1881749;74;20302;-80
2021/07/06 06:00:46;;;;;;;;;;;31.80;86.80;;;;;;1890649;74;20275;-80
2021/07/06 06:03:17;;;;;;;;;;;31.80;83.20;;;;;;1881000;74;20165;-79
2021/07/06 06:05:52;;;;;;;;;;;31.70;83.20;;;;;;1827404;76;20206;-79
2021/07/06 06:08:21;;;;;;;;;;;31.60;84.30;;;;;;1821983;76;20269;-78
2021/07/06 06:10:54;;;;;;;;;;;31.50;85.30;;;;;;1827311;76;20179;-80
2021/07/06 06:13:24;;;;;;;;;;;31.50;85.40;;;;;;1806504;77;20214;-79
2021/07/06 06:15:54;;;;;;;;;;;31.40;85.20;;;;;;1856071;76;20176;-79
2021/07/06 06:18:25;;;;;;;;;;;31.40;84.40;;;;;;1799058;78;20415;-77
2021/07/06 06:20:55;;;;;;;;;;;31.40;85.00;;;;;;1828709;77;20453;-79
2021/07/06 06:23:27;;;;;;;;;;;31.30;84.80;;;;;;1820062;77;20244;-80
2021/07/06 06:25:59;;;;;;;;;;;31.30;84.90;;;;;;1896126;74;20122;-80
2021/07/06 06:28:28;;;;;;;;;;;31.30;83.80;;;;;;1891993;75;20193;-80
2021/07/06 06:30:58;;;;;;;;;;;31.40;84.90;;;;;;1899369;74;20208;-80
2021/07/06 06:33:28;;;;;;;;;;;31.40;84.70;;;;;;1880681;75;20639;-79
2021/07/06 06:36:00;;;;;;;;;;;31.50;83.90;;;;;;1873017;75;20141;-80
2021/07/06 06:38:30;;;;;;;;;;;31.40;82.10;;;;;;1889663;75;20213;-80
2021/07/06 06:41:01;;;;;;;;;;;31.50;81.60;;;;;;1872274;75;20205;-80
2021/07/06 06:43:30;;;;;;;;;;;31.50;81.40;;;;;;1820548;77;20162;-79
2021/07/06 06:46:01;;;;;;;;;;;31.50;82.00;;;;;;1825696;77;20191;-79
2021/07/06 06:48:30;;;;;;;;;;;31.40;83.70;;;;;;1857749;76;20518;-79
2021/07/06 06:51:03;;;;;;;;;;;31.40;82.60;;;;;;1888315;75;20173;-80
2021/07/06 06:53:33;;;;;;;;;;;31.40;83.20;;;;;;1891704;73;20197;-79
2021/07/06 06:56:03;;;;;;;;;;;31.40;83.10;;;;;;1887595;75;20533;-80
2021/07/06 06:58:33;;;;;;;;;;;31.30;82.90;;;;;;1902231;74;20145;-79
2021/07/06 07:01:02;;;;;;;;;;;31.30;83.30;;;;;;1838609;76;20271;-79
2021/07/06 07:03:32;;;;;;;;;;;31.30;83.10;;;;;;1888659;74;20256;-79
2021/07/06 07:06:02;;;;;;;;;;;31.30;83.40;;;;;;1881944;75;20557;-79
2021/07/06 07:08:33;;;;;;;;;;;31.30;83.40;;;;;;1880896;75;20258;-80
2021/07/06 07:11:02;;;;;;;;;;;31.20;83.20;;;;;;1879554;74;20204;-80
2021/07/06 07:13:32;;;;;;;;;;;31.30;83.80;;;;;;1869500;75;20247;-78
2021/07/06 07:16:04;;;;;;;;;;;31.30;83.90;;;;;;1885098;75;20410;-81
2021/07/06 07:18:34;;;;;;;;;;;31.30;83.60;;;;;;1861340;75;20197;-79
2021/07/06 07:21:07;;;;;;;;;;;31.30;83.70;;;;;;1888282;74;20457;-79
2021/07/06 07:23:39;;;;;;;;;;;31.20;83.40;;;;;;1872748;74;20197;-81
2021/07/06 07:26:10;;;;;;;;;;;31.20;83.60;;;;;;1879888;75;20177;-80
2021/07/06 07:28:40;;;;;;;;;;;31.20;83.70;;;;;;1906152;74;20250;-80
2021/07/06 07:31:09;;;;;;;;;;;31.20;83.70;;;;;;1861139;76;20318;-80
2021/07/06 07:33:39;;;;;;;;;;;31.30;83.50;;;;;;1817910;77;20350;-80
2021/07/06 07:36:09;;;;;;;;;;;31.20;83.50;;;;;;1835914;76;20229;-80
2021/07/06 07:38:40;;;;;;;;;;;31.20;83.50;;;;;;1830447;76;20217;-80
2021/07/06 07:41:09;;;;;;;;;;;31.30;83.80;;;;;;1826724;77;20237;-79
2021/07/06 07:43:39;;;;;;;;;;;31.30;83.90;;;;;;1879259;74;20194;-80
2021/07/06 07:46:10;;;;;;;;;;;31.30;83.90;;;;;;1873770;76;20166;-80
2021/07/06 07:48:40;;;;;;;;;;;31.20;83.90;;;;;;1887502;75;20241;-78
2021/07/06 07:51:09;;;;;;;;;;;31.20;83.90;;;;;;1870326;75;20255;-79
2021/07/06 07:53:39;;;;;;;;;;;31.20;83.90;;;;;;1832452;76;20442;-78
2021/07/06 07:56:11;;;;;;;;;;;31.20;83.90;;;;;;1869516;74;20183;-79
2021/07/06 07:58:41;;;;;;;;;;;31.20;84.20;;;;;;1882279;74;20129;-78
2021/07/06 08:01:11;;;;;;;;;;;31.20;84.40;;;;;;1872085;74;21339;-78
2021/07/06 08:03:42;;;;;;;;;;;31.40;84.50;;;;;;1882199;74;20166;-79
2021/07/06 08:06:12;;;;;;;;;;;31.40;84.10;;;;;;1892166;74;20186;-79
2021/07/06 08:08:43;;;;;;;;;;;31.50;84.40;;;;;;1899987;73;20161;-79
2021/07/06 08:11:13;;;;;;;;;;;31.40;85.50;;;;;;1895471;74;20135;-78
2021/07/06 08:13:44;;;;;;;;;;;31.40;84.80;;;;;;1883536;74;20237;-79
2021/07/06 08:16:15;;;;;;;;;;;31.40;85.00;;;;;;1848186;76;20212;-79
2021/07/06 08:19:05;;;;;;;;;;;31.40;84.80;;;;;;1802396;78;20259;-80
2021/07/06 08:21:36;;;;;;;;;;;31.30;84.70;;;;;;1815834;76;20235;-79
2021/07/06 08:24:21;;;;;;;;;;;31.30;85.10;;;;;;1834697;76;20176;-78
2021/07/06 08:26:51;;;;;;;;;;;31.30;85.10;;;;;;1876793;75;20233;-79
2021/07/06 08:29:23;;;;;;;;;;;31.40;85.20;;;;;;1887650;74;20228;-79
2021/07/06 08:31:53;;;;;;;;;;;31.30;84.80;;;;;;1893336;74;20210;-79
2021/07/06 08:34:24;;;;;;;;;;;31.30;84.60;;;;;;1817385;76;20227;-79
2021/07/06 08:37:06;;;;;;;;;;;31.30;84.80;;;;;;1843321;76;20232;-79
2021/07/06 08:39:35;;;;;;;;;;;31.30;85.20;;;;;;1856741;76;20272;-78
2021/07/06 08:42:10;;;;;;;;;;;31.20;85.10;;;;;;1822919;76;20555;-80
2021/07/06 08:44:41;;;;;;;;;;;31.30;85.40;;;;;;1833212;77;20206;-81
2021/07/06 08:47:12;;;;;;;;;;;31.20;85.30;;;;;;1817791;77;20520;-80
2021/07/06 08:49:43;;;;;;;;;;;31.30;85.10;;;;;;1815564;78;20203;-80
2021/07/06 08:52:16;;;;;;;;;;;31.20;84.70;;;;;;1820698;77;20179;-80
2021/07/06 08:54:47;;;;;;;;;;;31.20;84.70;;;;;;1833557;76;20408;-78
2021/07/06 08:57:21;;;;;;;;;;;31.20;84.80;;;;;;1828265;76;20260;-78
2021/07/06 08:59:54;;;;;;;;;;;31.20;85.10;;;;;;1829354;77;20163;-80
2021/07/06 09:02:21;;;;;;;;;;;31.10;85.10;;;;;;1836821;76;20533;-80
2021/07/06 09:04:52;;;;;;;;;;;31.10;85.30;;;;;;1880490;75;20457;-80
2021/07/06 09:07:23;;;;;;;;;;;31.10;85.50;;;;;;1890908;74;20378;-81
2021/07/06 09:09:53;;;;;;;;;;;31.20;85.50;;;;;;1870546;75;20268;-81
2021/07/06 09:12:25;;;;;;;;;;;31.20;85.40;;;;;;1889584;74;20193;-80
2021/07/06 09:14:54;;;;;;;;;;;31.30;85.50;;;;;;1867617;75;20158;-81
2021/07/06 09:17:24;;;;;;;;;;;31.40;84.90;;;;;;1884694;74;20224;-81
2021/07/06 09:20:02;;;;;;;;;;;31.40;84.00;;;;;;1875342;75;20209;-80
2021/07/06 09:22:33;;;;;;;;;;;31.50;83.90;;;;;;1874709;75;20246;-80
2021/07/06 09:25:03;;;;;;;;;;;31.50;83.50;;;;;;1856570;76;20139;-80
2021/07/06 09:27:35;;;;;;;;;;;31.60;83.30;;;;;;1877651;76;20153;-79
2021/07/06 09:30:13;;;;;;;;;;;31.60;83.50;;;;;;1880904;75;20498;-80
2021/07/06 09:32:40;;;;;;;;;;;31.70;83.70;;;;;;1884023;75;20174;-80
2021/07/06 09:35:12;;;;;;;;;;;31.70;83.30;;;;;;1869873;75;20484;-80
2021/07/06 09:37:44;;;;;;;;;;;31.70;83.10;;;;;;1865895;75;20399;-79
2021/07/06 09:40:16;;;;;;;;;;;31.70;83.20;;;;;;1883003;75;20281;-78
2021/07/06 09:42:45;;;;;;;;;;;31.80;83.00;;;;;;1874873;75;20177;-79
2021/07/06 09:45:17;;;;;;;;;;;31.80;82.60;;;;;;1873322;75;20449;-80
2021/07/06 09:47:49;;;;;;;;;;;31.80;82.20;;;;;;1893793;75;20206;-81
2021/07/06 09:50:20;;;;;;;;;;;31.80;82.40;;;;;;1863905;75;20128;-81
2021/07/06 09:52:51;;;;;;;;;;;31.80;82.50;;;;;;1826730;76;20272;-80
2021/07/06 09:55:22;;;;;;;;;;;31.80;82.60;;;;;;1833505;75;20235;-80
2021/07/06 09:57:52;;;;;;;;;;;31.80;82.60;;;;;;1804339;77;20448;-80
2021/07/06 10:00:21;;;;;;;;;;;31.70;82.20;;;;;;1885765;75;20242;-81
2021/07/06 10:02:52;;;;;;;;;;;31.80;82.30;;;;;;1880866;75;20241;-80
2021/07/06 10:05:24;;;;;;;;;;;31.80;82.00;;;;;;1883140;75;20503;-79
2021/07/06 10:07:56;;;;;;;;;;;31.80;82.20;;;;;;1882094;75;20226;-80
2021/07/06 10:10:26;;;;;;;;;;;31.70;81.90;;;;;;1881300;75;20162;-81
2021/07/06 10:12:56;;;;;;;;;;;31.70;81.60;;;;;;1888433;75;20240;-79
2021/07/06 10:15:26;;;;;;;;;;;31.70;81.90;;;;;;1886938;75;20201;-80
2021/07/06 10:17:57;;;;;;;;;;;31.70;81.60;;;;;;1871967;75;20438;-80
2021/07/06 10:20:28;;;;;;;;;;;31.70;81.60;;;;;;1863650;75;20161;-80
2021/07/06 10:22:59;;;;;;;;;;;31.60;81.10;;;;;;1805638;79;20166;-81
2021/07/06 10:25:30;;;;;;;;;;;31.60;81.30;;;;;;1848433;76;20226;-80
2021/07/06 10:28:01;;;;;;;;;;;31.60;80.90;;;;;;1818260;77;20477;-79
2021/07/06 10:30:34;;;;;;;;;;;31.70;81.40;;;;;;1845307;76;20209;-80
2021/07/06 10:33:03;;;;;;;;;;;31.70;81.70;;;;;;1827670;77;20218;-81
2021/07/06 10:35:35;;;;;;;;;;;31.60;81.60;;;;;;1863765;75;20196;-79
2021/07/06 10:38:06;;;;;;;;;;;31.60;81.40;;;;;;1843471;76;20217;-79
2021/07/06 10:40:36;;;;;;;;;;;31.60;81.10;;;;;;1804554;78;20188;-79
2021/07/06 10:43:06;;;;;;;;;;;31.60;81.20;;;;;;1822701;77;20180;-78
2021/07/06 10:45:36;;;;;;;;;;;31.60;81.60;;;;;;1885279;75;20209;-78
2021/07/06 10:48:06;;;;;;;;;;;31.60;81.90;;;;;;1887121;75;20507;-79
2021/07/06 10:50:39;;;;;;;;;;;31.50;81.80;;;;;;1896396;75;20178;-81
2021/07/06 10:53:10;;;;;;;;;;;31.50;82.00;;;;;;1901877;74;20145;-78
2021/07/06 10:55:40;;;;;;;;;;;31.50;82.70;;;;;;1896354;74;20209;-77
2021/07/06 10:58:10;;;;;;;;;;;31.50;81.80;;;;;;1882806;74;20214;-79
2021/07/06 11:00:41;;;;;;;;;;;31.40;82.00;;;;;;1887311;75;20198;-79
2021/07/06 11:03:12;;;;;;;;;;;31.50;82.10;;;;;;1892875;75;20190;-80
2021/07/06 11:05:42;;;;;;;;;;;31.40;82.20;;;;;;1891699;74;20513;-80
2021/07/06 11:08:14;;;;;;;;;;;31.40;82.20;;;;;;1880543;74;20177;-80
2021/07/06 11:10:43;;;;;;;;;;;31.40;81.90;;;;;;1888899;75;20178;-81
2021/07/06 11:13:17;;;;;;;;;;;31.40;81.90;;;;;;1882387;75;20488;-79
2021/07/06 11:15:47;;;;;;;;;;;31.40;82.90;;;;;;1884045;75;20167;-79
2021/07/06 11:18:17;;;;;;;;;;;31.40;82.30;;;;;;1867269;75;20170;-81
2021/07/06 11:20:51;;;;;;;;;;;31.40;82.70;;;;;;1880089;75;20134;-81
2021/07/06 11:23:22;;;;;;;;;;;31.30;83.10;;;;;;1891806;75;20386;-81
2021/07/06 11:25:53;;;;;;;;;;;31.40;83.20;;;;;;1885592;75;20185;-80
2021/07/06 11:28:26;;;;;;;;;;;31.30;83.40;;;;;;1886337;74;20234;-79
2021/07/06 11:30:55;;;;;;;;;;;31.30;83.50;;;;;;1894236;75;20161;-79
2021/07/06 11:33:26;;;;;;;;;;;31.30;83.80;;;;;;1881633;73;20539;-79
2021/07/06 11:35:57;;;;;;;;;;;31.30;83.80;;;;;;1879612;76;20131;-79
2021/07/06 11:38:29;;;;;;;;;;;31.30;83.90;;;;;;1872877;76;20325;-78
2021/07/06 11:41:01;;;;;;;;;;;31.30;83.90;;;;;;1779043;77;20130;-79
2021/07/06 11:43:32;;;;;;;;;;;31.20;83.70;;;;;;1814066;78;20223;-80
2021/07/06 11:46:26;;;;;;;;;;;31.20;83.80;;;;;;1797480;77;20482;-79
2021/07/06 11:48:56;;;;;;;;;;;31.20;83.70;;;;;;1818728;77;20231;-81
2021/07/06 11:51:29;;;;;;;;;;;31.20;83.30;;;;;;1825757;78;20131;-78
2021/07/06 11:54:01;;;;;;;;;;;31.10;82.10;;;;;;1870114;75;20139;-79
2021/07/06 11:56:39;;;;;;;;;;;30.80;82.30;;;;;;1850807;75;20507;-79
2021/07/06 11:59:17;;;;;;;;;;;30.60;83.00;;;;;;1848955;75;20510;-78
2021/07/06 12:02:00;;;;;;;;;;;30.30;83.60;;;;;;1879023;75;20195;-77
2021/07/06 12:04:28;;;;;;;;;;;30.00;83.70;;;;;;1876348;75;20166;-78
2021/07/06 12:07:00;;;;;;;;;;;29.90;83.70;;;;;;1874655;75;20266;-78
2021/07/06 12:09:30;;;;;;;;;;;29.60;84.20;;;;;;1881216;75;20234;-79
2021/07/06 12:12:01;;;;;;;;;;;29.40;84.60;;;;;;1881560;75;20174;-78
2021/07/06 12:14:30;;;;;;;;;;;29.30;85.50;;;;;;1870235;74;20178;-79
2021/07/06 12:17:02;;;;;;;;;;;29.20;86.00;;;;;;1902020;75;20156;-78
2021/07/06 12:19:31;;;;;;;;;;;29.00;86.50;;;;;;1886626;75;20173;-78
2021/07/06 12:22:01;;;;;;;;;;;28.90;86.90;;;;;;1871351;75;20306;-78
2021/07/06 12:24:33;;;;;;;;;;;28.80;87.20;;;;;;1877963;75;20173;-78
2021/07/06 12:27:03;;;;;;;;;;;28.70;87.60;;;;;;1896412;75;20170;-78
2021/07/06 12:29:34;;;;;;;;;;;28.70;88.30;;;;;;1873860;75;20222;-77
2021/07/06 12:32:14;;;;;;;;;;;28.60;88.40;;;;;;1875468;75;20199;-78
2021/07/06 12:34:37;;;;;;;;;;;28.50;88.70;;;;;;1875836;74;20668;-93
2021/07/06 12:37:10;;;;;;;;;;;28.50;89.10;;;;;;1856789;75;20160;-91
2021/07/06 12:39:39;;;;;;;;;;;28.50;89.60;;;;;;1852361;75;20228;-92
2021/07/06 12:42:10;;;;;;;;;;;28.40;89.50;;;;;;1865538;75;20317;-92
2021/07/06 12:44:44;;;;;;;;;;;28.40;90.00;;;;;;1879289;75;20213;-91
2021/07/06 12:47:15;;;;;;;;;;;28.40;90.20;;;;;;1886495;75;20174;-92
2021/07/06 12:49:47;;;;;;;;;;;28.30;90.50;;;;;;1864241;76;20200;-92
2021/07/06 12:52:17;;;;;;;;;;;28.30;90.70;;;;;;1878879;75;20606;-91
2021/07/06 12:54:47;;;;;;;;;;;28.30;90.80;;;;;;1886284;74;20183;-92
2021/07/06 12:57:19;;;;;;;;;;;28.30;90.90;;;;;;1868540;75;20264;-91
2021/07/06 12:59:49;;;;;;;;;;;28.20;91.00;;;;;;1800273;78;20112;-91
2021/07/06 13:02:23;;;;;;;;;;;28.20;91.30;;;;;;1888756;74;20219;-91
2021/07/06 13:04:56;;;;;;;;;;;28.10;91.60;;;;;;1885748;75;20224;-91
2021/07/06 13:07:27;;;;;;;;;;;28.00;91.70;;;;;;1895905;75;20159;-92
2021/07/06 13:09:58;;;;;;;;;;;28.00;91.90;;;;;;1882030;75;20425;-91
2021/07/06 13:12:29;;;;;;;;;;;28.00;92.00;;;;;;1883815;75;20171;-91
2021/07/06 13:14:59;;;;;;;;;;;27.90;92.10;;;;;;1884212;74;20170;-92
2021/07/06 13:17:33;;;;;;;;;;;27.90;92.40;;;;;;1896721;74;20159;-92
2021/07/06 13:20:02;;;;;;;;;;;27.90;92.40;;;;;;1888092;74;20173;-89
2021/07/06 13:22:33;;;;;;;;;;;27.90;92.50;;;;;;1898854;74;20255;-94
2021/07/06 13:25:06;;;;;;;;;;;27.90;92.40;;;;;;1887146;74;20219;-92
2021/07/06 13:27:39;;;;;;;;;;;27.80;92.50;;;;;;1889225;75;20177;-90
2021/07/06 13:30:13;;;;;;;;;;;27.80;92.50;;;;;;1882427;75;20169;-92
2021/07/06 13:32:46;;;;;;;;;;;27.80;92.40;;;;;;1888857;75;20189;-92
2021/07/06 13:35:19;;;;;;;;;;;27.70;92.10;;;;;;1882448;74;20232;-93
2021/07/06 13:37:49;;;;;;;;;;;27.70;92.20;;;;;;1889790;75;20217;-91
2021/07/06 13:40:29;;;;;;;;;;;27.70;92.00;;;;;;1886630;75;20242;-92
2021/07/06 13:43:01;;;;;;;;;;;27.70;91.90;;;;;;1879255;75;20163;-90
2021/07/06 13:45:33;;;;;;;;;;;27.60;92.10;;;;;;1879102;75;20205;-91
2021/07/06 13:48:05;;;;;;;;;;;27.50;92.30;;;;;;1887159;75;20174;-91
2021/07/06 13:50:36;;;;;;;;;;;27.40;92.70;;;;;;1882341;75;20245;-93
2021/07/06 13:53:09;;;;;;;;;;;27.30;92.80;;;;;;1884439;75;20260;-93
2021/07/06 13:55:42;;;;;;;;;;;27.30;93.00;;;;;;1876160;75;20170;-93
2021/07/06 13:58:15;;;;;;;;;;;27.20;93.20;;;;;;1856270;76;20127;-91
2021/07/06 14:00:51;;;;;;;;;;;27.10;93.50;;;;;;1837192;76;20199;-91
2021/07/06 14:03:21;;;;;;;;;;;27.00;93.80;;;;;;1844764;76;20399;-90
2021/07/06 14:05:54;;;;;;;;;;;26.90;94.10;;;;;;1855364;75;20219;-91
2021/07/06 14:08:25;;;;;;;;;;;26.90;94.40;;;;;;1850336;75;20147;-91
2021/07/06 14:10:56;;;;;;;;;;;26.90;94.60;;;;;;1869351;74;21281;-90
2021/07/06 14:13:28;;;;;;;;;;;26.90;94.60;;;;;;1874103;75;20134;-92
2021/07/06 14:16:05;;;;;;;;;;;26.90;94.80;;;;;;1883168;75;20091;-91
2021/07/06 14:18:36;;;;;;;;;;;26.90;94.80;;;;;;1880220;75;20195;-90
2021/07/06 14:21:08;;;;;;;;;;;27.00;94.90;;;;;;1812029;76;20240;-92
2021/07/06 14:23:39;;;;;;;;;;;27.10;94.90;;;;;;1890437;74;20493;-91
2021/07/06 14:26:12;;;;;;;;;;;27.10;94.70;;;;;;1879514;75;20233;-92
2021/07/06 14:28:50;;;;;;;;;;;27.10;94.70;;;;;;1852540;76;20178;-92
2021/07/06 14:31:19;;;;;;;;;;;27.10;94.70;;;;;;1837062;76;20487;-93
2021/07/06 14:33:56;;;;;;;;;;;27.10;94.90;;;;;;1887926;74;20214;-92
2021/07/06 14:36:29;;;;;;;;;;;27.00;95.00;;;;;;1858425;75;20258;-93
2021/07/06 14:39:00;;;;;;;;;;;27.00;95.00;;;;;;1854008;75;20172;-91
2021/07/06 14:41:32;;;;;;;;;;;27.00;95.10;;;;;;1860857;76;20185;-93
2021/07/06 14:44:03;;;;;;;;;;;27.00;95.20;;;;;;1851447;75;20493;-92